Time;durP1;ratioP1;P1;durP2;ratioP2;P2;SDS_P1;SDS_P2;PMS_P1;PMS_P2;Temp;Humidity;BMP_temperature;BMP_pressure;BME280_temperature;BME280_humidity;BME280_pressure;Samples;Min_cycle;Max_cycle;Signal;HPM_P1;HPM_P2
2023/01/31 00:01:40;;;;;;;10.88;2.67;;;;;;;2.25;81.29;98137.95;1609462;87;21356;-94
2023/01/31 00:04:13;;;;;;;13.98;2.47;;;;;;;2.25;81.31;98153.41;1589534;89;21100;-94
2023/01/31 00:06:43;;;;;;;8.98;2.22;;;;;;;2.27;81.28;98164.50;1590942;89;21039;-95
2023/01/31 00:09:12;;;;;;;7.67;1.70;;;;;;;2.27;81.31;98156.77;1588339;89;21117;-95
2023/01/31 00:11:39;;;;;;;13.80;2.25;;;;;;;2.27;81.33;98138.75;1569359;89;21112;-95
2023/01/31 00:14:09;;;;;;;11.88;1.95;;;;;;;2.27;81.24;98164.50;1606536;86;21091;-91
2023/01/31 00:16:37;;;;;;;8.93;2.05;;;;;;;2.27;81.23;98164.50;1581870;88;21154;-95
2023/01/31 00:19:04;;;;;;;9.73;2.30;;;;;;;2.26;81.20;98157.66;1594619;87;21076;-93
2023/01/31 00:21:34;;;;;;;10.80;2.55;;;;;;;2.25;81.17;98158.56;1590611;86;21040;-94
2023/01/31 00:24:04;;;;;;;11.10;2.47;;;;;;;2.25;81.14;98170.15;1598509;87;21020;-94
2023/01/31 00:26:33;;;;;;;10.38;2.37;;;;;;;2.25;81.12;98176.59;1597825;87;21131;-94
2023/01/31 00:29:02;;;;;;;11.55;1.60;;;;;;;2.24;81.15;98179.62;1594386;87;21044;-94
2023/01/31 00:31:32;;;;;;;10.95;1.87;;;;;;;2.24;81.08;98172.31;1592112;88;21076;-94
2023/01/31 00:33:59;;;;;;;8.80;2.12;;;;;;;2.24;81.13;98181.33;1593371;89;21570;-94
2023/01/31 00:36:30;;;;;;;9.78;2.20;;;;;;;2.24;81.13;98189.92;1590831;89;21538;-93
2023/01/31 00:39:00;;;;;;;15.50;2.05;;;;;;;2.25;81.16;98202.34;1594794;87;21060;-94
2023/01/31 00:41:29;;;;;;;14.20;2.40;;;;;;;2.27;81.12;98210.86;1586530;87;21132;-94
2023/01/31 00:43:57;;;;;;;13.72;2.10;;;;;;;2.29;81.05;98216.77;1596992;87;21542;-94
2023/01/31 00:46:23;;;;;;;10.15;2.37;;;;;;;2.28;81.05;98215.10;1589945;88;21559;-94
2023/01/31 00:48:51;;;;;;;10.05;1.98;;;;;;;2.28;81.11;98218.97;1587626;87;21128;-94
2023/01/31 00:51:19;;;;;;;10.90;1.75;;;;;;;2.27;80.94;98218.59;1600497;88;21029;-93
2023/01/31 00:53:46;;;;;;;11.68;2.67;;;;;;;2.25;80.99;98219.08;1601152;88;21517;-93
2023/01/31 00:56:16;;;;;;;10.93;2.33;;;;;;;2.24;80.91;98224.69;1603705;87;21098;-95
2023/01/31 00:58:46;;;;;;;11.10;2.25;;;;;;;2.23;80.93;98217.00;1604174;88;21079;-92
2023/01/31 01:01:18;;;;;;;7.40;1.98;;;;;;;2.23;80.94;98227.30;1591894;88;21119;-95
2023/01/31 01:03:47;;;;;;;11.20;1.80;;;;;;;2.23;80.91;98232.45;1599128;88;21066;-92
2023/01/31 01:06:15;;;;;;;12.40;2.20;;;;;;;2.22;80.87;98228.21;1592343;87;21115;-94
2023/01/31 01:08:43;;;;;;;8.85;1.82;;;;;;;2.23;80.83;98250.48;1589803;88;22476;-94
2023/01/31 01:11:21;;;;;;;9.38;1.80;;;;;;;2.21;80.80;98242.83;1600980;86;21165;-95
2023/01/31 01:13:48;;;;;;;9.75;2.02;;;;;;;2.20;80.80;98246.28;1599490;87;21229;-94
2023/01/31 01:16:22;;;;;;;7.40;2.33;;;;;;;2.20;80.78;98241.59;1602289;87;21696;-94
2023/01/31 01:18:49;;;;;;;7.87;1.70;;;;;;;2.19;80.79;98259.23;1592850;87;21057;-93
2023/01/31 01:21:26;;;;;;;13.78;1.47;;;;;;;2.19;80.78;98248.93;1576091;89;21022;-94
2023/01/31 01:23:58;;;;;;;7.35;2.25;;;;;;;2.18;80.74;98267.83;1584000;89;21112;-94
2023/01/31 01:26:32;;;;;;;8.98;1.65;;;;;;;2.19;80.69;98264.38;1599107;87;21089;-94
2023/01/31 01:29:01;;;;;;;5.92;1.62;;;;;;;2.19;80.62;98274.68;1598192;87;21011;-95
2023/01/31 01:31:29;;;;;;;8.55;1.70;;;;;;;2.21;80.64;98280.59;1596782;87;21107;-95
2023/01/31 01:34:00;;;;;;;11.18;1.55;;;;;;;2.20;80.57;98287.94;1599688;87;21101;-95
2023/01/31 01:36:27;;;;;;;9.40;2.22;;;;;;;2.20;80.56;98291.80;1599601;88;21528;-95
2023/01/31 01:38:54;;;;;;;11.55;2.70;;;;;;;2.18;80.54;98292.30;1587246;88;21154;-94
2023/01/31 01:41:22;;;;;;;5.83;1.62;;;;;;;2.16;80.52;98295.40;1586846;89;21088;-95
2023/01/31 01:43:56;;;;;;;7.20;1.60;;;;;;;2.15;80.51;98298.84;1586443;89;21116;-94
2023/01/31 01:46:36;;;;;;;8.55;1.82;;;;;;;2.14;80.44;98302.33;1587610;89;21022;-93
2023/01/31 01:49:32;;;;;;;8.23;1.47;;;;;;;2.14;80.43;98295.89;1567796;89;21052;-95
2023/01/31 01:52:04;;;;;;;8.43;2.00;;;;;;;2.11;80.42;98307.59;1605121;87;21143;-94
2023/01/31 01:54:39;;;;;;;6.90;1.60;;;;;;;2.13;80.43;98307.06;1608212;88;21473;-95
2023/01/31 01:57:08;;;;;;;15.28;1.87;;;;;;;2.10;80.35;98309.33;1585417;87;21691;-95
2023/01/31 01:59:47;;;;;;;5.50;1.67;;;;;;;2.10;80.31;98305.89;1582724;89;21568;-92
2023/01/31 02:02:14;;;;;;;8.38;2.12;;;;;;;2.09;80.29;98319.67;1588088;88;21126;-95
2023/01/31 02:04:43;;;;;;;6.73;1.80;;;;;;;2.05;80.24;98315.09;1584196;88;21191;-94
2023/01/31 02:07:13;;;;;;;12.10;1.92;;;;;;;2.01;80.42;98315.62;1587531;89;22127;-95
2023/01/31 02:10:01;;;;;;;6.00;1.40;;;;;;;2.04;80.20;98321.11;1587192;89;21148;-94
2023/01/31 02:12:28;;;;;;;;;;;;;;;2.04;80.20;98324.97;1587138;88;21637;-95
2023/01/31 02:14:57;;;;;;;5.20;1.37;;;;;;;2.05;80.20;98343.86;1578623;87;20598;-92
2023/01/31 02:17:23;;;;;;;8.75;1.50;;;;;;;2.03;80.11;98340.48;1589010;87;21097;-94
2023/01/31 02:20:16;;;;;;;7.63;1.53;;;;;;;2.04;80.10;98343.44;1592405;88;21060;-92
2023/01/31 02:22:54;;;;;;;11.83;1.65;;;;;;;2.03;80.05;98348.21;1573370;89;21662;-94
2023/01/31 02:25:51;;;;;;;6.55;1.40;;;;;;;2.03;80.01;98340.48;1543288;90;21667;-94
2023/01/31 02:28:50;;;;;;;6.20;1.20;;;;;;;2.01;80.03;98346.51;1527763;91;21780;-94
2023/01/31 02:32:15;;;;;;;7.40;2.55;;;;;;;2.01;80.00;98359.38;1561898;90;21069;-94
2023/01/31 02:35:21;;;;;;;7.42;1.37;;;;;;;2.00;80.00;98356.42;1575474;87;21055;-94
2023/01/31 02:38:17;;;;;;;8.65;1.57;;;;;;;1.97;79.98;98355.25;1559319;89;21604;-95
2023/01/31 02:41:10;;;;;;;7.15;1.17;;;;;;;1.98;79.90;98353.51;1581372;88;21121;-92
2023/01/31 02:46:56;;;;;;;4.92;1.22;;;;;;;1.95;79.78;98360.88;1580067;88;21076;-95
2023/01/31 02:49:40;;;;;;;5.60;1.47;;;;;;;1.94;79.71;98373.83;1577564;88;21060;-95
2023/01/31 02:52:23;;;;;;;8.85;1.20;;;;;;;1.93;79.67;98370.84;1580650;88;21149;-94
2023/01/31 02:57:44;;;;;;;7.22;1.42;;;;;;;1.90;79.60;98392.37;1590661;88;21108;-93
2023/01/31 03:00:14;;;;;;;5.25;1.20;;;;;;;1.90;79.61;98402.67;1590779;88;21122;-91
2023/01/31 03:02:42;;;;;;;9.35;1.90;;;;;;;1.90;79.52;98387.22;1597737;88;21057;-94
2023/01/31 03:05:15;;;;;;;9.28;1.47;;;;;;;1.86;79.61;98394.66;1586720;87;21192;-94
2023/01/31 03:07:46;;;;;;;7.65;1.62;;;;;;;1.84;79.56;98397.73;1583878;88;21024;-92
2023/01/31 03:10:44;;;;;;;8.75;2.17;;;;;;;1.85;79.41;98402.00;1588867;88;21115;-94
2023/01/31 03:13:47;;;;;;;5.85;1.20;;;;;;;1.84;79.33;98399.47;1596280;89;21077;-93
2023/01/31 03:19:39;;;;;;;4.83;1.20;;;;;;;1.77;79.25;98394.98;1591118;88;21095;-95
2023/01/31 03:22:22;;;;;;;3.95;1.45;;;;;;;1.73;79.20;98390.80;1591603;88;21139;-94
2023/01/31 03:24:51;;;;;;;7.45;1.20;;;;;;;1.69;79.16;98388.78;1605910;87;21135;-95
2023/01/31 03:27:19;;;;;;;4.45;1.65;;;;;;;1.73;79.02;98397.24;1597455;88;21564;-94
2023/01/31 03:29:47;;;;;;;5.22;1.55;;;;;;;1.71;79.00;98396.44;1585048;89;21064;-94
2023/01/31 03:32:26;;;;;;;;;;;;;;;1.71;78.92;98410.59;1591725;88;21084;-94
2023/01/31 03:34:54;;;;;;;7.17;1.47;;;;;;;1.70;78.95;98416.19;1582196;88;20207;-94
2023/01/31 03:37:32;;;;;;;7.17;1.20;;;;;;;1.69;78.90;98431.25;1587891;88;21118;-95
2023/01/31 03:40:24;;;;;;;6.15;1.30;;;;;;;1.71;78.83;98429.89;1576540;89;21090;-95
2023/01/31 03:42:59;;;;;;;7.08;1.00;;;;;;;1.74;78.73;98441.41;1578680;89;21108;-94
2023/01/31 03:45:52;;;;;;;5.60;0.95;;;;;;;1.74;78.60;98443.52;1586449;88;21053;-94
2023/01/31 03:48:23;;;;;;;8.08;1.17;;;;;;;1.72;78.55;98440.60;1596256;88;21065;-95
2023/01/31 03:51:00;;;;;;;4.85;1.00;;;;;;;1.70;78.47;98442.38;1591024;88;21084;-94
2023/01/31 03:53:35;;;;;;;3.22;0.93;;;;;;;1.68;78.43;98429.99;1590249;88;21069;-91
2023/01/31 03:56:22;;;;;;;5.60;1.25;;;;;;;1.67;78.39;98451.48;1593811;85;21163;-95
2023/01/31 03:58:54;;;;;;;6.90;1.35;;;;;;;1.67;78.31;98455.34;1606279;87;21157;-94
2023/01/31 04:01:25;;;;;;;6.10;1.00;;;;;;;1.66;78.28;98466.08;1593951;88;21159;-94
2023/01/31 04:03:58;;;;;;;5.12;1.22;;;;;;;1.66;78.20;98457.08;1593762;87;21536;-95
2023/01/31 04:06:27;;;;;;;8.23;1.25;;;;;;;1.66;78.15;98467.81;1588597;88;21093;-95
2023/01/31 04:08:53;;;;;;;5.40;1.62;;;;;;;1.67;78.13;98472.06;1589217;89;21164;-93
2023/01/31 04:11:24;;;;;;;3.50;1.10;;;;;;;1.67;78.05;98472.06;1585445;89;21091;-95
2023/01/31 04:13:50;;;;;;;4.33;1.07;;;;;;;1.66;78.02;98478.95;1583180;89;21334;-93
2023/01/31 04:16:17;;;;;;;5.47;1.57;;;;;;;1.66;77.89;98475.54;1585947;89;21061;-94
2023/01/31 04:18:43;;;;;;;7.03;0.90;;;;;;;1.63;77.86;98489.34;1587459;89;21081;-95
2023/01/31 04:21:10;;;;;;;3.98;1.00;;;;;;;1.62;77.82;98497.09;1585622;87;21100;-95
2023/01/31 04:23:36;;;;;;;5.05;1.15;;;;;;;1.61;77.75;98501.40;1587090;88;21580;-95
2023/01/31 04:26:03;;;;;;;5.87;1.13;;;;;;;1.59;77.71;98503.62;1598899;87;21079;-95
2023/01/31 04:28:30;;;;;;;6.75;1.20;;;;;;;1.59;77.72;98520.34;1597685;88;21120;-94
2023/01/31 04:30:57;;;;;;;5.72;1.45;;;;;;;1.59;77.66;98520.34;1602273;88;21168;-95
2023/01/31 04:33:23;;;;;;;6.47;1.43;;;;;;;1.60;77.63;98524.59;1603098;88;21040;-94
2023/01/31 04:35:51;;;;;;;9.65;1.35;;;;;;;1.61;77.64;98526.30;1585540;88;21197;-94
2023/01/31 04:38:18;;;;;;;6.70;1.30;;;;;;;1.62;77.58;98530.54;1601211;88;21100;-95
2023/01/31 04:40:46;;;;;;;4.67;1.40;;;;;;;1.61;77.54;98528.86;1601004;88;21045;-94
2023/01/31 04:43:13;;;;;;;5.57;1.10;;;;;;;1.56;77.60;98531.11;1602677;87;21041;-94
2023/01/31 04:45:40;;;;;;;6.87;1.37;;;;;;;1.56;77.59;98542.69;1593321;88;21068;-93
2023/01/31 04:48:06;;;;;;;4.60;0.82;;;;;;;1.56;77.53;98550.41;1584032;89;21053;-94
2023/01/31 04:50:34;;;;;;;5.13;0.97;;;;;;;1.55;77.57;98546.16;1583252;89;21145;-95
2023/01/31 04:53:00;;;;;;;3.85;0.88;;;;;;;1.52;77.68;98535.97;1588986;89;21658;-93
2023/01/31 04:55:27;;;;;;;9.77;1.37;;;;;;;1.52;77.68;98535.97;1586262;89;21077;-94
2023/01/31 04:57:54;;;;;;;8.17;1.47;;;;;;;1.54;77.72;98554.78;1582670;87;21140;-94
2023/01/31 05:00:22;;;;;;;3.30;1.10;;;;;;;1.55;77.67;98550.02;1580588;89;21135;-94
2023/01/31 05:02:49;;;;;;;9.65;1.40;;;;;;;1.55;77.62;98553.87;1578509;89;21109;-95
2023/01/31 05:05:16;;;;;;;7.92;1.75;;;;;;;1.56;77.61;98550.41;1580374;86;21608;-94
2023/01/31 05:07:44;;;;;;;8.57;1.40;;;;;;;1.59;77.59;98566.66;1580929;88;21036;-94
2023/01/31 05:10:11;;;;;;;9.05;1.60;;;;;;;1.60;77.55;98555.46;1582928;89;21079;-93
2023/01/31 05:12:38;;;;;;;10.55;1.75;;;;;;;1.60;77.52;98555.46;1580934;89;21065;-94
2023/01/31 05:15:06;;;;;;;11.38;2.37;;;;;;;1.59;77.57;98569.23;1580128;88;21179;-95
2023/01/31 05:17:36;;;;;;;6.28;1.60;;;;;;;1.59;77.53;98566.66;1582368;88;21595;-95
2023/01/31 05:20:04;;;;;;;6.17;1.27;;;;;;;1.58;77.55;98590.70;1582771;88;21021;-92
2023/01/31 05:22:30;;;;;;;6.95;1.47;;;;;;;1.58;77.53;98576.55;1577808;89;21074;-91
2023/01/31 05:24:57;;;;;;;9.23;1.60;;;;;;;1.54;77.60;98580.50;1560815;88;21041;-95
2023/01/31 05:27:25;;;;;;;11.43;2.42;;;;;;;1.53;77.54;98580.09;1583662;88;21053;-94
2023/01/31 05:29:59;;;;;;;8.83;1.60;;;;;;;1.52;77.57;98579.70;1582246;88;21139;-94
2023/01/31 05:32:26;;;;;;;8.15;2.08;;;;;;;1.48;77.72;98588.38;1561916;89;21068;-93
2023/01/31 05:34:53;;;;;;;8.83;1.73;;;;;;;1.49;77.75;98593.94;1578825;89;21092;-93
2023/01/31 05:37:22;;;;;;;12.47;1.85;;;;;;;1.48;77.65;98598.66;1579823;89;21023;-93
2023/01/31 05:39:51;;;;;;;11.68;2.72;;;;;;;1.45;77.75;98601.33;1583403;87;21100;-92
2023/01/31 05:42:20;;;;;;;10.15;2.58;;;;;;;1.42;77.85;98598.84;1592340;88;21118;-91
2023/01/31 05:44:49;;;;;;;10.20;1.77;;;;;;;1.43;77.86;98599.27;1573652;89;21084;-92
2023/01/31 05:47:15;;;;;;;6.97;1.60;;;;;;;1.44;77.78;98607.37;1592007;87;21232;-93
2023/01/31 05:49:41;;;;;;;11.43;2.40;;;;;;;1.43;77.74;98609.55;1591433;87;21108;-91
2023/01/31 05:52:08;;;;;;;7.97;2.40;;;;;;;1.43;77.68;98615.98;1579279;87;21070;-91
2023/01/31 05:54:35;;;;;;;14.47;2.30;;;;;;;1.41;77.79;98622.89;1582122;87;21136;-91
2023/01/31 05:57:01;;;;;;;11.75;2.00;;;;;;;1.43;77.84;98626.27;1592641;88;21111;-92
2023/01/31 05:59:30;;;;;;;10.23;2.15;;;;;;;1.44;77.71;98639.52;1606683;87;21061;-92
2023/01/31 06:01:56;;;;;;;9.18;1.70;;;;;;;1.44;77.82;98645.95;1600392;88;21142;-92
2023/01/31 06:04:28;;;;;;;11.85;2.40;;;;;;;1.44;77.80;98648.53;1590354;89;21005;-94
2023/01/31 06:06:56;;;;;;;5.70;1.95;;;;;;;1.43;77.84;98653.70;1588756;88;21096;-91
2023/01/31 06:09:23;;;;;;;12.65;1.92;;;;;;;1.41;77.88;98655.05;1581890;88;21112;-91
2023/01/31 06:11:51;;;;;;;11.60;2.80;;;;;;;1.41;77.83;98664.05;1582615;88;21053;-90
2023/01/31 06:14:21;;;;;;;16.15;2.12;;;;;;;1.39;77.73;98673.52;1580116;88;21256;-92
2023/01/31 06:16:49;;;;;;;9.08;1.95;;;;;;;1.37;77.84;98670.14;1581649;88;22441;-92
2023/01/31 06:19:16;;;;;;;6.45;1.52;;;;;;;1.39;77.79;98678.67;1583694;88;21472;-91
2023/01/31 06:21:43;;;;;;;11.55;2.40;;;;;;;1.37;77.74;98683.00;1590472;87;21045;-92
2023/01/31 06:24:10;;;;;;;15.28;3.62;;;;;;;1.33;77.82;98683.98;1586692;89;21636;-94
2023/01/31 06:26:41;;;;;;;14.03;2.42;;;;;;;1.29;77.83;98692.67;1586766;88;21071;-90
2023/01/31 06:29:12;;;;;;;13.13;2.75;;;;;;;1.24;77.95;98691.95;1584075;88;20998;-91
2023/01/31 06:31:45;;;;;;;8.23;2.80;;;;;;;1.21;77.99;98694.60;1582061;88;21073;-91
2023/01/31 06:34:11;;;;;;;10.95;3.47;;;;;;;1.23;78.00;98703.09;1582908;89;21049;-92
2023/01/31 06:36:45;;;;;;;17.30;3.83;;;;;;;1.22;77.97;98693.70;1585857;89;21040;-90
2023/01/31 06:39:13;;;;;;;14.45;4.08;;;;;;;1.24;78.20;98705.64;1583815;88;21489;-90
2023/01/31 06:41:45;;;;;;;13.93;4.22;;;;;;;1.25;78.12;98707.31;1584142;88;22431;-92
2023/01/31 06:44:15;;;;;;;16.52;3.47;;;;;;;1.25;78.08;98704.75;1586578;88;21071;-91
2023/01/31 06:46:57;;;;;;;14.10;3.87;;;;;;;1.23;78.17;98710.81;1581148;88;21612;-91
2023/01/31 06:49:31;;;;;;;12.78;3.40;;;;;;;1.25;78.08;98709.05;1586717;88;21433;-90
2023/01/31 06:58:40;;;;;;;13.60;2.85;;;;;;;1.29;78.21;98728.68;1503682;92;21132;-94
2023/01/31 07:01:11;;;;;;;12.10;2.60;;;;;;;1.25;78.52;98727.05;1516748;92;21123;-96
2023/01/31 07:03:49;;;;;;;13.88;2.83;;;;;;;1.29;78.83;98734.66;1503259;93;23533;-92
2023/01/31 07:06:22;;;;;;;11.65;3.12;;;;;;;1.43;78.64;98741.16;1491357;94;21168;-89
2023/01/31 07:09:01;;;;;;;13.78;3.50;;;;;;;1.47;78.57;98741.05;1515647;92;21172;-94
2023/01/31 07:11:30;;;;;;;9.85;2.83;;;;;;;1.48;78.56;98745.30;1504271;94;21264;-90
2023/01/31 07:13:57;;;;;;;13.75;3.50;;;;;;;1.48;78.49;98732.44;1492723;93;21107;-92
2023/01/31 07:16:26;;;;;;;10.83;2.57;;;;;;;1.51;78.50;98732.38;1491295;95;21107;-93
2023/01/31 07:19:01;;;;;;;16.73;2.72;;;;;;;1.57;78.69;98728.80;1473018;95;21631;-92
2023/01/31 07:21:35;;;;;;;14.63;3.30;;;;;;;1.65;78.76;98733.72;1496656;94;21077;-93
2023/01/31 07:24:05;;;;;;;12.63;2.92;;;;;;;1.69;78.77;98732.77;1496425;94;21142;-91
2023/01/31 07:26:34;;;;;;;13.48;2.58;;;;;;;1.75;78.80;98732.14;1500712;94;21150;-92
2023/01/31 07:29:00;;;;;;;19.55;3.98;;;;;;;1.81;78.89;98737.57;1498112;94;22810;-92
2023/01/31 07:31:26;;;;;;;9.60;3.95;;;;;;;1.88;78.89;98718.95;1497339;93;21090;-96
2023/01/31 07:33:58;;;;;;;19.50;4.85;;;;;;;1.89;78.90;98735.63;1518033;92;21584;-92
2023/01/31 07:36:35;;;;;;;16.93;3.67;;;;;;;1.95;78.93;98740.60;1574254;88;21133;-92
2023/01/31 07:39:00;;;;;;;15.58;2.90;;;;;;;1.99;78.96;98748.66;1493542;93;21211;-92
2023/01/31 07:41:28;;;;;;;11.60;2.65;;;;;;;2.07;79.05;98738.56;1504980;93;21164;-90
2023/01/31 07:47:11;;;;;;;9.10;2.60;;;;;;;2.00;79.70;98752.91;1509180;93;21836;-91
2023/01/31 07:49:40;;;;;;;17.00;3.02;;;;;;;2.15;79.52;98746.92;1531579;91;21080;-93
2023/01/31 07:52:11;;;;;;;11.93;2.70;;;;;;;2.22;79.64;98745.88;1533612;92;21115;-93
2023/01/31 07:54:37;;;;;;;10.55;2.70;;;;;;;2.29;79.41;98749.09;1534905;91;21614;-93
2023/01/31 07:57:04;;;;;;;9.53;2.42;;;;;;;2.34;79.39;98751.94;1535373;90;21569;-92
2023/01/31 07:59:36;;;;;;;11.38;2.85;;;;;;;2.42;79.49;98763.31;1536400;91;21060;-93
2023/01/31 08:04:58;;;;;;;7.67;2.17;;;;;;;2.47;79.30;98757.59;1530321;90;21161;-96
2023/01/31 08:07:28;;;;;;;12.78;3.42;;;;;;;2.45;79.29;98761.48;1536129;91;21062;-90
2023/01/31 08:09:54;;;;;;;9.23;2.47;;;;;;;2.51;79.39;98742.42;1535281;91;21064;-94
2023/01/31 08:12:21;;;;;;;10.98;2.83;;;;;;;2.52;79.15;98776.75;1527110;91;21157;-95
2023/01/31 08:14:48;;;;;;;12.67;3.40;;;;;;;2.44;79.17;98775.27;1534272;91;21171;-95
2023/01/31 08:17:14;;;;;;;10.10;2.58;;;;;;;2.39;79.33;98782.28;1529291;91;21057;-94
2023/01/31 08:19:49;;;;;;;7.43;1.67;;;;;;;2.43;79.12;98773.56;1549504;89;21054;-96
2023/01/31 08:22:15;;;;;;;12.93;3.25;;;;;;;2.39;79.08;98770.69;1532917;91;21102;-96
2023/01/31 08:24:49;;;;;;;16.75;3.70;;;;;;;2.34;78.98;98774.28;1539529;90;21069;-94
2023/01/31 08:27:19;;;;;;;9.48;2.62;;;;;;;2.36;79.07;98774.64;1537245;90;21073;-96
2023/01/31 08:29:45;;;;;;;10.43;2.42;;;;;;;2.48;79.02;98773.88;1577371;88;21103;-96
2023/01/31 08:32:14;;;;;;;8.53;3.00;;;;;;;2.52;79.44;98776.75;1608178;89;20986;-96
2023/01/31 08:34:42;;;;;;;11.80;3.00;;;;;;;2.71;79.42;98775.31;1604558;88;21732;-96
2023/01/31 08:37:10;;;;;;;10.72;2.92;;;;;;;2.89;79.22;98774.77;1597746;88;21069;-96
2023/01/31 08:39:37;;;;;;;8.15;2.00;;;;;;;2.99;79.23;98787.36;1605337;88;21054;-96
2023/01/31 08:42:10;;;;;;;14.15;2.72;;;;;;;3.11;79.05;98777.96;1599700;88;21041;-96
2023/01/31 08:44:37;;;;;;;12.70;2.72;;;;;;;3.09;78.55;98791.34;1593993;89;21522;-94
2023/01/31 08:47:05;;;;;;;7.67;2.70;;;;;;;2.97;78.60;98789.13;1607630;87;21165;-96
2023/01/31 08:49:35;;;;;;;15.38;3.37;;;;;;;2.87;78.78;98805.34;1593529;87;21101;-96
2023/01/31 08:52:00;;;;;;;9.98;2.75;;;;;;;2.85;78.97;98798.94;1593362;88;21124;-94
2023/01/31 08:54:27;;;;;;;11.73;2.50;;;;;;;2.90;78.95;98785.46;1596558;87;21053;-94
2023/01/31 08:56:54;;;;;;;7.97;2.67;;;;;;;2.89;78.65;98792.81;1595188;89;21029;-91
2023/01/31 08:59:20;;;;;;;8.40;2.55;;;;;;;2.86;78.50;98804.96;1592489;89;21671;-96
2023/01/31 09:01:47;;;;;;;11.57;2.42;;;;;;;2.81;78.53;98799.94;1590416;89;21062;-89
2023/01/31 09:04:16;;;;;;;11.97;2.80;;;;;;;2.85;78.59;98814.86;1593111;89;21069;-95
2023/01/31 09:06:44;;;;;;;8.25;2.55;;;;;;;2.85;78.65;98806.66;1593006;88;21116;-95
2023/01/31 09:09:11;;;;;;;11.28;2.52;;;;;;;2.85;78.42;98804.09;1596798;88;21226;-96
2023/01/31 09:11:38;;;;;;;11.20;2.83;;;;;;;2.89;78.51;98804.41;1580851;89;21077;-95
2023/01/31 09:14:11;;;;;;;10.32;3.55;;;;;;;2.94;78.42;98807.28;1591345;87;20995;-94
2023/01/31 09:16:40;;;;;;;12.75;3.72;;;;;;;2.95;78.12;98816.72;1593420;89;21061;-96
2023/01/31 09:19:09;;;;;;;20.92;4.62;;;;;;;2.90;78.15;98817.69;1595849;88;21069;-96
2023/01/31 09:21:36;;;;;;;13.85;3.37;;;;;;;2.89;78.05;98816.02;1584123;88;21052;-96
2023/01/31 09:24:02;;;;;;;10.78;3.37;;;;;;;2.89;77.98;98818.59;1602021;89;21021;-96
2023/01/31 09:26:30;;;;;;;11.87;3.80;;;;;;;2.88;77.92;98829.77;1596379;88;21152;-96
2023/01/31 09:29:00;;;;;;;10.28;2.85;;;;;;;2.91;77.89;98836.16;1594858;87;21868;-96
2023/01/31 09:31:39;;;;;;;14.60;2.80;;;;;;;2.96;77.94;98839.03;1594145;89;21053;-95
2023/01/31 09:34:02;;;;;;;7.70;1.65;;;;;;;3.03;77.76;98822.48;1569943;89;21099;-96
2023/01/31 09:36:34;;;;;;;8.23;2.30;;;;;;;3.13;77.63;98822.13;1590185;89;21007;-93
2023/01/31 09:39:05;;;;;;;10.08;2.95;;;;;;;3.26;77.70;98827.76;1592522;89;21022;-93
2023/01/31 09:41:58;;;;;;;15.90;3.00;;;;;;;3.42;77.64;98822.09;1597571;88;21057;-94
2023/01/31 09:44:32;;;;;;;9.35;1.87;;;;;;;3.51;77.42;98828.27;1588558;88;21101;-96
2023/01/31 09:47:45;;;;;;;9.43;2.15;;;;;;;3.48;77.35;98834.82;1587319;88;21022;-96
2023/01/31 09:50:40;;;;;;;9.70;2.47;;;;;;;3.40;77.00;98836.80;1559796;88;21172;-96
2023/01/31 09:53:58;;;;;;;12.68;2.10;;;;;;;3.18;76.79;98825.03;1592467;88;21615;-94
2023/01/31 10:15:15;;;;;;;12.40;2.22;;;;;;;3.65;76.07;98819.61;1666652;84;21135;-94
2023/01/31 10:17:58;;;;;;;9.25;2.40;;;;;;;3.89;75.88;98822.24;1602415;87;21188;-96
2023/01/31 10:24:39;;;;;;;9.48;2.50;;;;;;;3.96;75.50;98810.82;1556146;89;21199;-92
2023/01/31 10:27:27;;;;;;;7.28;1.52;;;;;;;4.04;75.30;98816.56;1464772;95;21588;-92
2023/01/31 10:39:46;;;;;;;8.05;2.02;;;;;;;3.71;74.35;98824.56;1560707;88;21233;-96
2023/01/31 10:43:02;;;;;;;10.30;1.72;;;;;;;3.53;73.89;98807.13;1559315;90;21146;-95
2023/01/31 10:45:33;;;;;;;;;;;;;;;3.50;73.94;98813.66;1539331;90;21106;-91
2023/01/31 10:48:26;;;;;;;9.90;2.27;;;;;;;3.43;73.59;98808.31;1547977;89;20141;-95
2023/01/31 10:51:58;;;;;;;12.60;2.00;;;;;;;3.38;73.72;98805.03;1542959;89;21454;-90
2023/01/31 10:54:32;;;;;;;7.28;1.80;;;;;;;3.43;73.63;98805.73;1478213;94;21132;-96
2023/01/31 10:57:02;;;;;;;11.22;2.33;;;;;;;3.48;73.42;98806.43;1503429;94;21588;-93
2023/01/31 10:59:40;;;;;;;8.23;2.35;;;;;;;3.47;73.25;98808.59;1530788;92;21645;-90
2023/01/31 11:02:25;;;;;;;18.02;3.12;;;;;;;3.57;73.37;98803.53;1552222;91;21096;-89
2023/01/31 11:05:10;;;;;;;10.43;3.25;;;;;;;3.60;72.86;98799.55;1502453;93;21013;-95
2023/01/31 11:07:55;;;;;;;8.55;2.90;;;;;;;3.57;72.57;98795.34;1439663;95;21172;-92
2023/01/31 11:10:28;;;;;;;17.10;6.72;;;;;;;3.55;72.36;98794.99;1440545;97;21139;-96
2023/01/31 11:19:53;;;;;;;12.78;3.08;;;;;;;3.48;71.82;98790.95;1420005;98;21652;-95
2023/01/31 11:22:32;;;;;;;9.30;2.90;;;;;;;3.53;72.00;98790.35;1470461;96;21053;-96
2023/01/31 11:25:08;;;;;;;12.85;2.33;;;;;;;3.84;72.02;98784.11;1472216;95;21028;-92
2023/01/31 11:27:42;;;;;;;12.35;2.75;;;;;;;4.05;71.72;98782.07;1445655;97;21124;-96
2023/01/31 11:30:29;;;;;;;8.28;1.95;;;;;;;4.03;71.41;98781.27;1439861;98;21123;-92
2023/01/31 11:32:57;;;;;;;11.35;2.50;;;;;;;4.10;71.49;98778.05;1445201;98;21096;-96
2023/01/31 11:38:43;;;;;;;9.88;2.70;;;;;;;3.96;71.16;98779.83;1351141;103;20195;-94
2023/01/31 11:45:18;;;;;;;8.98;1.80;;;;;;;3.76;71.11;98765.87;1268453;109;20480;-91
2023/01/31 11:48:07;;;;;;;7.33;1.57;;;;;;;3.56;70.50;98773.47;1274536;110;21331;-89
2023/01/31 11:50:39;;;;;;;6.87;1.52;;;;;;;3.46;70.49;98761.75;1289015;107;21845;-89
2023/01/31 11:53:29;;;;;;;10.10;2.08;;;;;;;3.48;70.52;98762.55;1325928;106;21271;-90
2023/01/31 11:56:16;;;;;;;8.25;1.90;;;;;;;3.55;70.33;98749.37;1295462;107;21270;-91
2023/01/31 11:58:44;;;;;;;10.08;2.15;;;;;;;3.65;70.41;98728.42;1306953;107;21148;-87
2023/01/31 12:01:24;;;;;;;7.10;2.17;;;;;;;3.79;70.17;98727.03;1295925;107;21320;-92
2023/01/31 12:04:04;;;;;;;8.13;1.70;;;;;;;3.88;69.82;98722.44;1311688;106;21168;-96
2023/01/31 12:06:42;;;;;;;5.22;1.42;;;;;;;4.08;70.13;98709.62;1348059;101;21232;-89
2023/01/31 12:09:28;;;;;;;7.30;2.00;;;;;;;4.28;69.93;98708.05;1365730;103;21147;-89
2023/01/31 12:12:05;;;;;;;10.18;2.75;;;;;;;4.38;69.69;98694.72;1368929;102;21161;-91
2023/01/31 12:14:41;;;;;;;6.87;1.50;;;;;;;4.25;69.41;98694.33;1411981;93;21198;-90
2023/01/31 12:17:19;;;;;;;8.98;2.00;;;;;;;4.10;69.25;98682.00;1543175;90;21042;-93
2023/01/31 12:23:31;;;;;;;6.97;1.80;;;;;;;3.80;68.68;98689.97;1620310;85;21202;-93
2023/01/31 12:42:33;;;;;;;10.38;3.27;;;;;;;2.73;68.37;98680.74;1591359;84;21181;-93
2023/01/31 12:48:54;;;;;;;6.95;1.65;;;;;;;2.67;68.87;98678.37;1481350;94;21152;-94
2023/01/31 13:06:13;;;;;;;;;;;;;;;;;;;;;
2023/01/31 13:09:06;;;;;;;;;;;;;;;;;;;;;
2023/01/31 13:50:33;;;;;;;;;;;;;;;;;;;;;
2023/01/31 14:24:06;;;;;;;8.80;2.33;;;;;;;2.06;72.43;98574.67;1452002;96;21545;-91
2023/01/31 14:50:11;;;;;;;13.32;3.02;;;;;;;2.05;74.28;98565.28;1499855;93;21036;-91
2023/01/31 14:53:16;;;;;;;9.93;3.00;;;;;;;2.03;74.89;98564.48;1483666;90;21140;-92
2023/01/31 14:56:03;;;;;;;8.45;2.00;;;;;;;1.98;74.46;98552.57;1541495;90;21074;-92
2023/01/31 14:58:33;;;;;;;11.22;2.42;;;;;;;1.98;74.80;98544.84;1576687;88;21069;-92
2023/01/31 15:01:04;;;;;;;8.05;2.25;;;;;;;2.04;74.87;98539.95;1580809;88;21558;-92
2023/01/31 15:03:48;;;;;;;10.68;2.85;;;;;;;2.03;75.05;98539.56;1578631;88;21047;-91
2023/01/31 15:06:39;;;;;;;10.90;2.12;;;;;;;2.03;75.17;98543.88;1576315;89;21112;-94
2023/01/31 15:09:28;;;;;;;12.23;2.62;;;;;;;2.03;75.13;98528.43;1545467;91;21005;-92
2023/01/31 15:11:56;;;;;;;7.67;2.50;;;;;;;1.95;75.19;98516.63;1586606;87;20946;-92
2023/01/31 15:14:44;;;;;;;14.45;3.20;;;;;;;1.91;75.39;98529.66;1628928;87;20989;-93
2023/01/31 15:17:40;;;;;;;;;;;;;;;1.88;75.54;98519.47;1632036;85;21077;-93
2023/01/31 15:20:19;;;;;;;15.05;4.78;;;;;;;1.85;75.78;98522.98;1562048;89;20220;-87
2023/01/31 15:22:46;;;;;;;12.40;3.00;;;;;;;1.81;75.79;98521.38;1573088;88;21124;-89
2023/01/31 15:25:45;;;;;;;18.42;4.45;;;;;;;1.76;75.85;98523.23;1569961;88;21564;-92
2023/01/31 15:28:08;;;;;;;13.28;4.62;;;;;;;1.69;75.83;98516.61;1526967;92;21023;-90
2023/01/31 15:31:28;;;;;;;17.95;7.00;;;;;;;1.65;76.15;98505.55;1543856;91;21162;-91
2023/01/31 15:34:07;;;;;;;16.97;5.62;;;;;;;1.62;76.29;98503.52;1542605;91;21049;-92